This is the latest recevied weather packets stored in our database for station/object K1BES. If no packets are shown the sender has not sent any weather packets the latest 10 day(s).
| Time | Temp. | Humidity | Pressure | Rain* | Wind** | Luminosity | Snow |
|---|---|---|---|---|---|---|---|
| 1777759270 | 22.78° C | 94% | 1013.8 hPa | 0 mm | - | 53 W/m² | - |
| 1777758968 | 22.78° C | 94% | 1014 hPa | 0 mm | - | 29 W/m² | - |
| 1777758664 | 22.78° C | 94% | 1013.7 hPa | 0 mm | - | 40 W/m² | - |
| 1777758361 | 22.78° C | 94% | 1013.6 hPa | 0 mm | - | 50 W/m² | - |
| 1777758059 | 22.78° C | 94% | 1013.8 hPa | 4.83 mm | - | 31 W/m² | - |
| 1777757755 | 22.78° C | 93% | 1013.7 hPa | 4.32 mm | - | 61 W/m² | - |
| 1777757453 | 22.78° C | 92% | 1013.6 hPa | 29.97 mm | - | 53 W/m² | - |
| 1777757152 | 23.33° C | 90% | 1013.8 hPa | 28.7 mm | - | 20 W/m² | - |
| 1777756849 | 26.11° C | 84% | 1014 hPa | 0 mm | - | 8 W/m² | - |
| 1777756544 | 26.67° C | 87% | 1013 hPa | 0 mm | - | 18 W/m² | - |
| 1777756242 | 26.67° C | 87% | 1012.8 hPa | 0 mm | - | 48 W/m² | - |
| 1777755939 | 27.22° C | 86% | 1012.6 hPa | 0 mm | - | 83 W/m² | - |
| 1777755636 | 27.22° C | 86% | 1012.7 hPa | 0 mm | - | 87 W/m² | - |
| 1777755332 | 27.22° C | 85% | 1012.6 hPa | 0 mm | - | 103 W/m² | - |
| 1777755030 | 27.22° C | 85% | 1012.7 hPa | 0 mm | - | 105 W/m² | - |
| 1777754726 | 27.22° C | 85% | 1012.7 hPa | 0 mm | - | 111 W/m² | - |
| 1777754424 | 27.22° C | 84% | 1012.8 hPa | 0 mm | - | 119 W/m² | - |
| 1777754121 | 27.78° C | 84% | 1012.9 hPa | 0 mm | - | 126 W/m² | - |
| 1777753818 | 27.78° C | 83% | 1012.7 hPa | 0 mm | - | 143 W/m² | - |
| 1777753514 | 27.78° C | 83% | 1012.6 hPa | 0 mm | - | 159 W/m² | - |
| 1777753213 | 27.78° C | 84% | 1012.7 hPa | 0 mm | - | 131 W/m² | - |
| 1777752908 | 27.78° C | 83% | 1012.7 hPa | 0 mm | - | 154 W/m² | - |
| 1777752605 | 28.33° C | 82% | 1012.8 hPa | 0 mm | - | 125 W/m² | - |
| 1777752301 | 28.33° C | 81% | 1012.7 hPa | 0 mm | - | 172 W/m² | - |
| 1777751999 | 28.89° C | 80% | 1012.7 hPa | 0 mm | - | 227 W/m² | - |
* Rain latest hour (hover to see other rain measurements)
** Current wind speed in m/s (hover to see current wind gust speed)